Time;durP1;ratioP1;P1;durP2;ratioP2;P2;SDS_P1;SDS_P2;PMS_P1;PMS_P2;Temp;Humidity;BMP_temperature;BMP_pressure;BME280_temperature;BME280_humidity;BME280_pressure;Samples;Min_cycle;Max_cycle;Signal;HPM_P1;HPM_P2
2022/01/08 00:00:36;;;;;;;81.60;44.10;;;;;;;-6.66;85.56;98993.99;105196;1271;69377;-75
2022/01/08 00:03:08;;;;;;;82.80;42.20;;;;;;;-6.65;85.72;98992.78;105129;1271;73872;-75
2022/01/08 00:05:35;;;;;;;84.20;44.50;;;;;;;-6.61;85.68;98987.79;105117;1271;61410;-74
2022/01/08 00:08:01;;;;;;;88.40;41.50;;;;;;;-6.60;85.56;98984.48;105107;1271;61294;-75
2022/01/08 00:10:28;;;;;;;85.80;42.40;;;;;;;-6.62;85.48;98987.42;105170;1271;75195;-74
2022/01/08 00:12:56;;;;;;;81.70;40.50;;;;;;;-6.67;85.62;98988.12;105182;1271;61358;-75
2022/01/08 00:15:22;;;;;;;61.70;30.60;;;;;;;-6.68;85.78;98988.30;105191;1271;71399;-74
2022/01/08 00:17:49;;;;;;;57.90;28.60;;;;;;;-6.55;85.89;98986.92;105200;1271;61276;-75
2022/01/08 00:20:16;;;;;;;47.50;23.00;;;;;;;-6.39;85.87;98987.29;105208;1271;61196;-74
2022/01/08 00:22:42;;;;;;;46.30;22.90;;;;;;;-6.27;85.36;98985.91;104939;1271;76888;-75
2022/01/08 00:25:10;;;;;;;52.90;24.40;;;;;;;-6.14;85.26;98985.04;105190;1271;68498;-76
2022/01/08 00:27:37;;;;;;;50.90;22.20;;;;;;;-6.07;84.92;98984.70;105200;1271;73870;-76
2022/01/08 00:30:04;;;;;;;52.10;23.90;;;;;;;-6.01;84.79;98980.88;105171;1271;61320;-72
2022/01/08 00:32:31;;;;;;;42.60;18.30;;;;;;;-5.97;84.51;98975.35;105199;1271;61326;-75
2022/01/08 00:34:57;;;;;;;47.10;23.10;;;;;;;-5.97;84.24;98970.00;105109;1271;61400;-77
2022/01/08 00:37:24;;;;;;;47.60;24.90;;;;;;;-5.99;84.54;98962.05;105103;1271;69367;-74
2022/01/08 00:39:51;;;;;;;57.30;26.50;;;;;;;-6.01;84.58;98958.05;104903;1271;74379;-73
2022/01/08 00:42:17;;;;;;;50.10;23.90;;;;;;;-6.01;84.51;98958.76;104994;1271;61121;-75
2022/01/08 00:44:44;;;;;;;48.30;25.10;;;;;;;-6.06;84.30;98955.81;105206;1271;61794;-74
2022/01/08 00:47:10;;;;;;;43.60;24.40;;;;;;;-6.10;84.16;98949.08;104958;1271;61314;-74
2022/01/08 00:49:37;;;;;;;49.80;27.10;;;;;;;-6.14;83.86;98945.45;105204;1271;70110;-75
2022/01/08 00:52:05;;;;;;;53.80;26.40;;;;;;;-6.21;84.02;98952.02;105230;1271;73143;-75
2022/01/08 00:54:32;;;;;;;52.40;27.00;;;;;;;-6.32;84.11;98949.95;105113;1271;61380;-74
2022/01/08 00:56:58;;;;;;;43.90;21.80;;;;;;;-6.44;84.07;98944.60;105476;1271;61877;-73
2022/01/08 00:59:25;;;;;;;45.40;23.20;;;;;;;-6.48;84.08;98945.63;105905;1271;76387;-73
2022/01/08 01:01:51;;;;;;;52.10;24.80;;;;;;;-6.47;84.00;98941.82;105870;1271;69255;-75
2022/01/08 01:04:19;;;;;;;39.70;19.70;;;;;;;-6.44;83.80;98938.71;105109;1270;73895;-74
2022/01/08 01:06:46;;;;;;;44.90;24.60;;;;;;;-6.42;83.93;98935.95;105174;1271;61240;-74
2022/01/08 01:09:12;;;;;;;48.50;26.30;;;;;;;-6.45;84.03;98935.60;105021;1271;230534;-74
2022/01/08 01:11:39;;;;;;;35.60;19.60;;;;;;;-6.52;84.02;98930.59;104501;1271;1002545;-74
2022/01/08 01:14:06;;;;;;;37.40;19.30;;;;;;;-6.54;83.97;98925.93;104454;1271;1003818;-74
2022/01/08 01:16:33;;;;;;;42.10;23.00;;;;;;;-6.50;84.10;98920.91;105159;1271;74012;-75
2022/01/08 01:19:02;;;;;;;31.70;17.30;;;;;;;-6.50;83.97;98923.49;104869;1272;61342;-73
2022/01/08 01:21:29;;;;;;;30.10;14.70;;;;;;;-6.51;83.91;98922.80;104954;1271;61569;-72
2022/01/08 01:23:56;;;;;;;25.40;11.80;;;;;;;-6.49;83.93;98921.95;105168;1271;76341;-74
2022/01/08 01:26:26;;;;;;;24.90;13.50;;;;;;;-6.47;83.90;98921.94;105182;1271;69197;-74
2022/01/08 01:29:16;;;;;;;33.30;17.80;;;;;;;-6.44;83.98;98917.80;105098;1271;72880;-74
2022/01/08 01:48:37;;;;;;;;;;;;;;;-6.61;84.69;98900.52;104884;1271;61645;-73
2022/01/08 01:51:04;;;;;;;32.30;18.90;;;;;;;-6.66;84.65;98897.76;105185;1271;61401;-74
2022/01/08 01:53:30;;;;;;;34.70;18.80;;;;;;;-6.74;84.92;98897.93;104439;1271;1003098;-74
2022/01/08 01:55:57;;;;;;;31.40;17.80;;;;;;;-6.80;84.99;98899.47;105161;1271;61266;-75
2022/01/08 01:58:23;;;;;;;30.90;18.80;;;;;;;-6.85;85.14;98902.23;105216;1271;61282;-74
2022/01/08 02:00:51;;;;;;;29.00;16.70;;;;;;;-6.88;85.18;98896.52;105193;1271;61269;-74
2022/01/08 02:03:18;;;;;;;24.50;14.00;;;;;;;-6.88;85.18;98891.52;105156;1271;75853;-74
2022/01/08 02:05:46;;;;;;;22.80;13.20;;;;;;;-6.86;85.32;98887.04;105181;1271;70356;-74
2022/01/08 02:08:13;;;;;;;19.10;11.90;;;;;;;-6.86;85.42;98877.19;105186;1271;73349;-74
2022/01/08 02:10:40;;;;;;;16.00;10.10;;;;;;;-6.85;85.47;98874.08;105096;1271;61287;-74
2022/01/08 02:13:07;;;;;;;13.60;8.60;;;;;;;-6.81;85.60;98872.86;105000;1271;62117;-74
2022/01/08 02:15:35;;;;;;;14.10;7.90;;;;;;;-6.77;85.52;98878.73;105211;1271;76083;-75
2022/01/08 02:18:03;;;;;;;13.70;7.80;;;;;;;-6.72;85.48;98879.27;105320;1271;69719;-75
2022/01/08 02:20:30;;;;;;;12.40;8.30;;;;;;;-6.64;85.54;98878.23;105119;1271;73004;-75
2022/01/08 02:22:57;;;;;;;14.80;7.80;;;;;;;-6.59;85.52;98866.48;105099;1271;61387;-73
2022/01/08 02:25:23;;;;;;;14.50;8.10;;;;;;;-6.54;85.57;98864.41;105168;1271;61313;-75
2022/01/08 02:27:50;;;;;;;12.70;7.00;;;;;;;-6.51;85.56;98859.73;105111;1271;61263;-73
2022/01/08 02:30:16;;;;;;;11.50;7.80;;;;;;;-6.48;85.56;98859.38;105179;1271;68158;-71
2022/01/08 02:32:45;;;;;;;12.30;8.70;;;;;;;-6.45;85.56;98858.52;105169;1271;74323;-73
2022/01/08 02:35:11;;;;;;;15.50;9.90;;;;;;;-6.42;85.80;98860.60;105145;1271;61287;-74
2022/01/08 02:37:38;;;;;;;14.10;9.50;;;;;;;-6.41;85.50;98860.07;105223;1271;62068;-76
2022/01/08 02:40:07;;;;;;;17.90;9.70;;;;;;;-6.40;85.50;98857.81;105262;1271;75655;-72
2022/01/08 02:42:40;;;;;;;15.40;10.60;;;;;;;-6.38;85.45;98857.83;105246;1271;69134;-73
2022/01/08 02:45:07;;;;;;;16.90;10.90;;;;;;;-6.36;85.55;98854.88;105221;1271;73263;-75
2022/01/08 02:47:34;;;;;;;17.40;12.10;;;;;;;-6.32;85.47;98852.80;105165;1271;61213;-75
2022/01/08 02:50:00;;;;;;;23.10;14.80;;;;;;;-6.32;85.41;98851.93;105118;1271;61718;-73
2022/01/08 02:52:27;;;;;;;24.90;15.70;;;;;;;-6.35;85.39;98849.52;105129;1271;75340;-75
2022/01/08 02:54:54;;;;;;;20.20;12.90;;;;;;;-6.37;85.44;98844.86;105025;1271;69229;-74
2022/01/08 02:57:20;;;;;;;20.90;14.70;;;;;;;-6.39;85.52;98842.79;105229;1271;61262;-74
2022/01/08 02:59:47;;;;;;;20.50;12.00;;;;;;;-6.43;85.81;98837.60;105256;1271;61327;-73
2022/01/08 03:02:14;;;;;;;25.30;14.10;;;;;;;-6.46;86.09;98835.02;105170;1271;61393;-74
2022/01/08 03:04:41;;;;;;;19.40;14.00;;;;;;;-6.50;86.30;98830.18;105112;1271;75152;-74
2022/01/08 03:07:07;;;;;;;22.40;13.50;;;;;;;-6.55;86.25;98830.20;105121;1270;69377;-73
2022/01/08 03:09:39;;;;;;;22.10;12.70;;;;;;;-6.61;86.25;98827.25;105067;1271;74176;-74
2022/01/08 03:12:06;;;;;;;14.60;10.40;;;;;;;-6.65;86.33;98820.88;105015;1271;61244;-74
2022/01/08 03:14:33;;;;;;;15.50;9.60;;;;;;;-6.67;86.27;98816.55;105102;1271;61289;-74
2022/01/08 03:17:00;;;;;;;15.40;9.20;;;;;;;-6.68;86.21;98813.27;105120;1271;75372;-75
2022/01/08 03:19:26;;;;;;;12.40;8.40;;;;;;;-6.69;86.30;98810.02;105063;1271;70064;-75
2022/01/08 03:21:55;;;;;;;7.50;6.60;;;;;;;-6.69;86.31;98810.69;105084;1271;73145;-76
2022/01/08 03:24:27;;;;;;;11.80;7.90;;;;;;;-6.67;86.43;98810.52;105045;1271;61176;-75
2022/01/08 03:26:54;;;;;;;11.10;6.70;;;;;;;-6.64;86.30;98807.21;105058;1271;61284;-75
2022/01/08 03:29:21;;;;;;;11.20;7.10;;;;;;;-6.62;86.23;98804.27;105091;1271;74128;-75
2022/01/08 03:31:47;;;;;;;11.80;7.30;;;;;;;-6.59;86.27;98801.69;105050;1271;69508;-74
2022/01/08 03:34:14;;;;;;;16.80;8.30;;;;;;;-6.56;86.32;98804.96;105032;1271;74676;-74
2022/01/08 03:36:41;;;;;;;12.30;8.40;;;;;;;-6.55;86.48;98803.41;105063;1271;61387;-74
2022/01/08 03:39:08;;;;;;;13.50;9.50;;;;;;;-6.56;86.31;98802.02;104742;1271;62316;-73
2022/01/08 03:41:35;;;;;;;17.90;10.20;;;;;;;-6.59;86.25;98800.64;104166;1271;1003706;-74
2022/01/08 03:44:02;;;;;;;15.80;10.20;;;;;;;-6.60;86.33;98799.27;105045;1271;69389;-73
2022/01/08 03:46:33;;;;;;;17.00;11.70;;;;;;;-6.62;86.56;98802.04;105031;1271;71475;-76
2022/01/08 03:51:30;;;;;;;18.90;11.80;;;;;;;-6.69;86.67;98797.05;104370;1271;1003411;-74
2022/01/08 03:54:00;;;;;;;16.50;10.90;;;;;;;-6.70;86.50;98792.20;105124;1271;73341;-74
2022/01/08 03:56:27;;;;;;;19.10;11.90;;;;;;;-6.73;86.73;98793.23;105075;1271;70771;-73
2022/01/08 03:58:53;;;;;;;19.60;11.40;;;;;;;-6.75;86.77;98789.27;105059;1270;73184;-74
2022/01/08 04:01:20;;;;;;;15.80;10.80;;;;;;;-6.78;86.81;98790.14;105055;1271;61384;-74
2022/01/08 04:03:47;;;;;;;17.80;11.80;;;;;;;-6.82;86.85;98786.85;105082;1271;61370;-72
2022/01/08 04:06:14;;;;;;;15.50;11.60;;;;;;;-6.87;86.94;98786.52;105104;1271;76309;-74
2022/01/08 04:08:40;;;;;;;17.60;11.50;;;;;;;-6.89;87.00;98786.17;105093;1271;69466;-76
2022/01/08 04:11:07;;;;;;;18.80;12.10;;;;;;;-6.92;87.21;98790.14;104329;1271;1003993;-75
2022/01/08 04:13:37;;;;;;;21.70;13.30;;;;;;;-6.95;87.20;98790.83;104649;1272;61406;-75
2022/01/08 04:16:12;;;;;;;16.90;10.50;;;;;;;-6.99;87.20;98792.39;105304;1271;61188;-75
2022/01/08 04:18:39;;;;;;;14.10;10.50;;;;;;;-7.01;87.35;98792.04;104930;1271;75229;-77
2022/01/08 04:23:54;;;;;;;18.90;10.60;;;;;;;-7.01;87.51;98789.27;105078;1271;73214;-74
2022/01/08 04:26:23;;;;;;;17.40;11.20;;;;;;;-7.04;87.55;98788.25;105080;1271;61275;-73
2022/01/08 04:28:52;;;;;;;16.40;10.70;;;;;;;-7.06;87.75;98785.65;105144;1271;61836;-74
2022/01/08 04:31:20;;;;;;;18.10;10.10;;;;;;;-7.07;87.83;98779.45;105053;1271;76432;-74
2022/01/08 04:33:46;;;;;;;18.70;11.90;;;;;;;-7.09;88.04;98775.63;105113;1271;69470;-73
2022/01/08 04:36:14;;;;;;;18.80;12.40;;;;;;;-7.12;88.03;98773.58;105108;1271;73294;-74
2022/01/08 04:38:40;;;;;;;19.50;12.60;;;;;;;-7.15;88.11;98776.84;105140;1270;61323;-74
2022/01/08 04:41:07;;;;;;;18.20;11.60;;;;;;;-7.20;88.28;98770.11;105078;1271;61364;-76
2022/01/08 04:43:37;;;;;;;22.50;13.20;;;;;;;-7.26;88.37;98774.60;104914;1271;76399;-76
2022/01/08 04:46:04;;;;;;;25.20;14.80;;;;;;;-7.31;88.59;98777.35;105057;1271;69256;-76
2022/01/08 04:48:31;;;;;;;25.00;14.60;;;;;;;-7.34;88.64;98769.94;105034;1271;73213;-76
2022/01/08 04:50:57;;;;;;;25.50;15.20;;;;;;;-7.37;88.89;98769.59;104863;1271;61426;-75
2022/01/08 04:53:24;;;;;;;39.70;21.00;;;;;;;-7.42;88.87;98773.72;105106;1271;61923;-75
2022/01/08 04:55:50;;;;;;;36.70;19.90;;;;;;;-7.43;88.70;98771.83;105021;1271;61303;-75
2022/01/08 04:58:17;;;;;;;39.40;21.10;;;;;;;-7.42;88.69;98772.68;105090;1271;61294;-75
2022/01/08 05:00:44;;;;;;;35.30;18.90;;;;;;;-7.42;88.90;98768.89;105066;1271;73174;-75
2022/01/08 05:03:11;;;;;;;36.80;19.40;;;;;;;-7.42;89.20;98767.68;105214;1271;61284;-75
2022/01/08 05:05:37;;;;;;;40.40;19.70;;;;;;;-7.41;89.09;98763.36;105027;1271;61664;-75
2022/01/08 05:08:04;;;;;;;44.40;19.50;;;;;;;-7.39;89.29;98759.58;105065;1271;75396;-73
2022/01/08 05:10:33;;;;;;;41.40;19.60;;;;;;;-7.37;89.30;98755.60;105043;1271;69921;-76
2022/01/08 05:13:05;;;;;;;34.70;17.80;;;;;;;-7.35;89.35;98755.61;105051;1271;73441;-74
2022/01/08 05:15:33;;;;;;;35.10;15.50;;;;;;;-7.31;89.33;98755.60;104990;1274;61276;-74
2022/01/08 05:18:00;;;;;;;30.80;15.20;;;;;;;-7.28;89.21;98757.86;105042;1271;62194;-74
2022/01/08 05:20:31;;;;;;;33.70;15.70;;;;;;;-7.24;89.30;98757.17;105069;1271;74251;-74
2022/01/08 05:23:00;;;;;;;20.60;12.20;;;;;;;-7.17;89.22;98759.06;105061;1271;68479;-75
2022/01/08 05:25:29;;;;;;;24.50;12.70;;;;;;;-7.09;89.17;98759.24;105007;1271;73834;-75
2022/01/08 05:27:56;;;;;;;24.80;13.40;;;;;;;-7.01;89.22;98764.08;104186;1271;1002677;-74
2022/01/08 05:30:24;;;;;;;24.20;11.40;;;;;;;-6.96;89.16;98762.86;105254;1271;61358;-73
2022/01/08 05:32:52;;;;;;;22.10;11.60;;;;;;;-6.92;89.06;98761.82;105295;1271;74350;-75
2022/01/08 05:35:19;;;;;;;20.00;11.30;;;;;;;-6.86;88.91;98761.98;105034;1271;70516;-74
2022/01/08 05:37:46;;;;;;;29.20;16.90;;;;;;;-6.83;88.83;98756.81;105083;1271;74248;-74
2022/01/08 05:40:13;;;;;;;30.20;15.60;;;;;;;-6.84;89.03;98761.48;105081;1271;61166;-75
2022/01/08 05:42:39;;;;;;;27.20;14.50;;;;;;;-6.83;88.91;98757.33;105085;1271;62024;-75
2022/01/08 05:45:06;;;;;;;22.20;12.70;;;;;;;-6.82;88.84;98756.10;105080;1271;76149;-75
2022/01/08 05:47:34;;;;;;;24.80;12.00;;;;;;;-6.80;88.57;98756.98;105093;1271;69450;-74
2022/01/08 05:50:02;;;;;;;29.20;16.70;;;;;;;-6.77;88.71;98759.89;105117;1271;72491;-72
2022/01/08 05:52:29;;;;;;;31.90;18.80;;;;;;;-6.75;88.89;98754.38;105168;1271;61285;-74
2022/01/08 05:54:56;;;;;;;30.80;17.80;;;;;;;-6.73;88.77;98759.04;105068;1271;61331;-74
2022/01/08 05:57:23;;;;;;;25.30;15.40;;;;;;;-6.71;88.90;98757.66;104992;1271;75274;-74
2022/01/08 05:59:49;;;;;;;24.00;14.90;;;;;;;-6.69;89.03;98760.92;105071;1271;69151;-74
2022/01/08 06:02:16;;;;;;;25.20;14.20;;;;;;;-6.68;89.10;98753.33;105084;1271;61406;-76
2022/01/08 06:04:43;;;;;;;25.10;15.30;;;;;;;-6.65;89.25;98751.23;105070;1271;61335;-76
2022/01/08 06:07:10;;;;;;;24.30;14.90;;;;;;;-6.62;89.25;98755.39;105153;1271;61271;-75
2022/01/08 06:09:36;;;;;;;25.90;15.20;;;;;;;-6.63;89.05;98757.64;105102;1271;76318;-74
2022/01/08 06:12:03;;;;;;;25.60;15.80;;;;;;;-6.62;89.00;98755.55;105141;1271;69185;-74
2022/01/08 06:14:30;;;;;;;29.30;16.30;;;;;;;-6.58;89.04;98758.66;104999;1272;73949;-75
2022/01/08 06:16:56;;;;;;;25.40;15.20;;;;;;;-6.53;89.30;98765.73;105544;1271;61273;-73
2022/01/08 06:19:23;;;;;;;24.50;16.80;;;;;;;-6.51;89.25;98763.14;105890;1271;61263;-74
2022/01/08 06:21:49;;;;;;;27.80;17.60;;;;;;;-6.47;89.20;98762.09;105840;1271;75235;-73
2022/01/08 06:24:16;;;;;;;25.80;17.50;;;;;;;-6.39;89.26;98765.70;105190;1271;61253;-74
2022/01/08 06:26:43;;;;;;;29.80;16.80;;;;;;;-6.32;89.35;98766.02;104799;1273;74024;-74
2022/01/08 06:29:09;;;;;;;23.30;14.80;;;;;;;-6.27;89.36;98766.36;105053;1271;61275;-75
2022/01/08 06:31:36;;;;;;;23.70;14.90;;;;;;;-6.22;89.34;98768.41;105145;1271;61423;-76
2022/01/08 06:34:03;;;;;;;22.50;16.40;;;;;;;-6.16;89.16;98771.67;105111;1271;76188;-74
2022/01/08 06:36:30;;;;;;;25.00;18.40;;;;;;;-6.11;89.00;98769.41;105077;1271;68878;-73
2022/01/08 06:38:57;;;;;;;27.00;19.20;;;;;;;-6.03;89.08;98767.83;105073;1271;73232;-74
2022/01/08 06:41:24;;;;;;;25.50;17.40;;;;;;;-5.95;89.03;98763.96;105101;1271;61265;-74
2022/01/08 06:43:50;;;;;;;28.50;20.00;;;;;;;-5.86;89.00;98759.41;105058;1271;61840;-74
2022/01/08 06:46:17;;;;;;;30.60;19.70;;;;;;;-5.75;89.40;98759.36;105106;1271;75496;-76
2022/01/08 06:48:43;;;;;;;26.10;19.90;;;;;;;-5.67;89.72;98754.64;104916;1271;61291;-72
2022/01/08 06:51:10;;;;;;;33.10;23.00;;;;;;;-5.56;89.66;98757.69;105097;1271;61416;-73
2022/01/08 06:53:37;;;;;;;29.70;21.00;;;;;;;-5.45;89.79;98758.31;104930;1271;61233;-74
2022/01/08 06:56:04;;;;;;;31.60;22.10;;;;;;;-5.33;89.73;98754.59;105078;1271;61820;-75
2022/01/08 06:58:31;;;;;;;31.80;22.20;;;;;;;-5.21;89.73;98759.02;105078;1271;75347;-74
2022/01/08 07:00:58;;;;;;;28.70;21.20;;;;;;;-5.12;89.72;98750.63;105163;1271;70354;-74
2022/01/08 07:03:25;;;;;;;31.30;21.20;;;;;;;-5.00;89.72;98754.86;105092;1271;74432;-75
2022/01/08 07:05:52;;;;;;;30.80;20.80;;;;;;;-4.88;89.71;98755.45;104920;1271;61280;-74
2022/01/08 07:08:18;;;;;;;27.90;19.40;;;;;;;-4.77;89.70;98762.97;104918;1272;61317;-73
2022/01/08 07:10:45;;;;;;;33.40;21.50;;;;;;;-4.65;89.66;98762.33;105135;1271;76043;-74
2022/01/08 07:13:11;;;;;;;48.10;31.90;;;;;;;-4.54;89.46;98764.31;105115;1271;70485;-76
2022/01/08 07:15:38;;;;;;;55.90;36.00;;;;;;;-4.43;89.11;98763.15;105079;1271;72627;-74
2022/01/08 07:18:04;;;;;;;48.40;31.30;;;;;;;-4.32;88.92;98760.44;105122;1271;61269;-75
2022/01/08 07:20:31;;;;;;;51.30;33.10;;;;;;;-4.24;88.83;98758.77;105109;1271;61388;-75
2022/01/08 07:22:59;;;;;;;48.50;33.70;;;;;;;-4.12;88.79;98758.66;105103;1271;61364;-74
2022/01/08 07:25:26;;;;;;;45.20;30.90;;;;;;;-3.99;88.73;98750.86;105004;1272;69798;-72
2022/01/08 07:27:52;;;;;;;32.20;23.90;;;;;;;-3.85;88.53;98750.00;105162;1271;74717;-75
2022/01/08 07:30:20;;;;;;;42.30;26.90;;;;;;;-3.72;88.28;98747.04;105140;1271;61379;-75
2022/01/08 07:32:52;;;;;;;36.40;24.70;;;;;;;-3.58;88.07;98742.85;105159;1271;61815;-74
2022/01/08 07:35:22;;;;;;;33.20;23.60;;;;;;;-3.49;87.68;98745.15;105139;1271;75279;-73
2022/01/08 07:37:51;;;;;;;36.20;23.80;;;;;;;-3.44;87.48;98742.66;105137;1271;69490;-74
2022/01/08 07:40:20;;;;;;;34.80;22.70;;;;;;;-3.39;87.38;98734.77;105205;1271;73374;-74
2022/01/08 07:42:48;;;;;;;38.10;25.80;;;;;;;-3.34;87.07;98735.02;105162;1271;61483;-75
2022/01/08 07:45:17;;;;;;;39.10;25.40;;;;;;;-3.31;86.99;98734.98;105144;1271;61132;-75
2022/01/08 07:47:44;;;;;;;42.40;26.00;;;;;;;-3.26;86.84;98734.76;104950;1271;73960;-74
2022/01/08 07:50:11;;;;;;;44.90;27.70;;;;;;;-3.24;86.88;98729.16;105141;1271;69069;-75
2022/01/08 07:52:37;;;;;;;38.20;26.10;;;;;;;-3.21;86.82;98734.30;105096;1271;74227;-76
2022/01/08 07:55:04;;;;;;;38.30;24.90;;;;;;;-3.17;86.96;98733.55;105093;1271;61294;-73
2022/01/08 07:57:32;;;;;;;44.20;27.40;;;;;;;-3.10;86.95;98735.52;104987;1271;61274;-74
2022/01/08 07:59:58;;;;;;;40.20;27.10;;;;;;;-3.04;86.79;98740.13;105126;1271;61384;-74
2022/01/08 08:02:25;;;;;;;38.80;26.00;;;;;;;-2.98;86.77;98741.92;105097;1271;61327;-76
2022/01/08 08:04:51;;;;;;;42.70;26.40;;;;;;;-2.91;86.78;98741.98;105107;1271;73613;-74
2022/01/08 08:07:36;;;;;;;45.10;28.90;;;;;;;-2.86;86.80;98740.00;105138;1274;61182;-75
2022/01/08 08:10:12;;;;;;;46.80;28.50;;;;;;;-2.82;86.48;98728.09;105177;1271;61715;-75
2022/01/08 08:12:40;;;;;;;44.50;28.70;;;;;;;-2.76;86.55;98728.87;105171;1271;75246;-74
2022/01/08 08:15:08;;;;;;;44.50;30.70;;;;;;;-2.68;86.60;98726.29;105194;1271;70175;-74
2022/01/08 08:17:35;;;;;;;46.70;29.70;;;;;;;-2.59;86.31;98726.66;105023;1274;72721;-74
2022/01/08 08:20:04;;;;;;;46.80;29.10;;;;;;;-2.50;86.28;98734.49;105173;1271;61287;-75
2022/01/08 08:22:31;;;;;;;47.40;26.80;;;;;;;-2.40;86.23;98730.45;105200;1271;61179;-75
2022/01/08 08:24:57;;;;;;;53.70;31.20;;;;;;;-2.31;86.17;98731.69;105344;1271;61234;-75
2022/01/08 08:27:25;;;;;;;57.70;31.90;;;;;;;-2.23;86.13;98731.54;105818;1271;68876;-73
2022/01/08 08:29:52;;;;;;;66.10;34.80;;;;;;;-2.13;86.15;98724.20;105044;1271;74337;-73
2022/01/08 08:32:19;;;;;;;63.30;35.50;;;;;;;-2.00;85.90;98724.80;105225;1271;61299;-72
2022/01/08 08:34:46;;;;;;;59.30;35.50;;;;;;;-1.83;85.73;98724.29;105316;1271;61145;-73
2022/01/08 08:37:13;;;;;;;64.40;36.80;;;;;;;-1.65;85.72;98720.77;105233;1271;76306;-72
2022/01/08 08:39:39;;;;;;;60.50;36.50;;;;;;;-1.50;85.44;98719.55;104828;1271;69507;-73
2022/01/08 08:42:06;;;;;;;64.90;38.10;;;;;;;-1.41;84.98;98722.29;105255;1271;61368;-73
2022/01/08 08:44:32;;;;;;;59.60;34.00;;;;;;;-1.35;84.90;98727.22;105153;1271;61358;-72
2022/01/08 08:46:59;;;;;;;55.00;33.60;;;;;;;-1.33;84.75;98732.91;105074;1271;61279;-74
2022/01/08 08:49:26;;;;;;;56.10;33.30;;;;;;;-1.29;84.62;98730.04;105123;1271;76400;-72
2022/01/08 08:51:54;;;;;;;52.20;32.10;;;;;;;-1.26;84.43;98725.96;104798;1271;69210;-73
2022/01/08 08:54:20;;;;;;;59.20;32.00;;;;;;;-1.28;84.18;98722.87;104722;1272;71338;-72
2022/01/08 08:56:47;;;;;;;56.70;31.50;;;;;;;-1.33;83.86;98727.70;105004;1271;61301;-73
2022/01/08 08:59:14;;;;;;;53.80;30.20;;;;;;;-1.36;83.90;98729.33;105129;1271;61374;-73
2022/01/08 09:01:41;;;;;;;54.10;31.70;;;;;;;-1.35;83.92;98730.19;105030;1271;76173;-75
2022/01/08 09:04:09;;;;;;;61.10;31.60;;;;;;;-1.28;84.04;98729.67;105106;1271;70241;-72
2022/01/08 09:06:36;;;;;;;59.00;33.70;;;;;;;-1.22;84.04;98728.83;104751;1272;73316;-74
2022/01/08 09:09:03;;;;;;;55.20;32.50;;;;;;;-1.21;83.77;98726.36;104678;1272;61312;-72
2022/01/08 09:11:30;;;;;;;61.00;32.90;;;;;;;-1.19;83.59;98721.25;104759;1271;61712;-73
2022/01/08 09:13:57;;;;;;;51.00;29.30;;;;;;;-1.09;84.02;98723.28;105168;1271;75177;-73
2022/01/08 09:16:24;;;;;;;59.60;33.20;;;;;;;-0.98;83.79;98724.08;105152;1271;69247;-73
2022/01/08 09:18:51;;;;;;;65.80;35.90;;;;;;;-0.89;83.68;98718.77;105134;1271;73636;-73
2022/01/08 09:21:18;;;;;;;63.50;37.90;;;;;;;-0.76;83.49;98720.04;105087;1271;61303;-73
2022/01/08 09:23:45;;;;;;;75.80;41.70;;;;;;;-0.66;83.31;98721.48;104705;1271;62108;-72
2022/01/08 09:26:12;;;;;;;90.90;50.00;;;;;;;-0.57;83.28;98719.89;105058;1271;75146;-72
2022/01/08 09:28:40;;;;;;;111.20;56.00;;;;;;;-0.46;83.33;98718.71;105244;1271;69776;-73
2022/01/08 09:31:07;;;;;;;104.20;56.80;;;;;;;-0.39;83.13;98717.99;104994;1271;73555;-73
2022/01/08 09:33:35;;;;;;;106.10;60.20;;;;;;;-0.34;83.29;98719.42;105056;1271;61377;-73
2022/01/08 09:36:02;;;;;;;95.40;58.10;;;;;;;-0.29;83.30;98717.55;105155;1271;61283;-75
2022/01/08 09:38:29;;;;;;;97.70;54.90;;;;;;;-0.25;83.14;98714.30;105119;1271;75779;-73
2022/01/08 09:40:55;;;;;;;88.20;52.40;;;;;;;-0.17;83.21;98720.73;105120;1271;61384;-76
2022/01/08 09:43:22;;;;;;;89.20;52.70;;;;;;;-0.04;83.00;98727.67;105086;1271;74298;-73
2022/01/08 09:45:49;;;;;;;103.70;59.70;;;;;;;-0.03;82.19;98729.05;105091;1272;61324;-73
2022/01/08 09:48:16;;;;;;;109.10;64.50;;;;;;;-0.06;82.01;98728.27;104952;1271;61391;-73
2022/01/08 09:50:43;;;;;;;92.70;56.80;;;;;;;-0.04;82.13;98720.17;105145;1271;75296;-73
2022/01/08 09:53:10;;;;;;;75.60;46.40;;;;;;;0.03;82.19;98717.86;105120;1271;69405;-75
2022/01/08 09:55:37;;;;;;;57.20;34.30;;;;;;;0.11;81.79;98713.47;105052;1271;74236;-73
2022/01/08 09:58:03;;;;;;;62.40;35.30;;;;;;;0.14;81.21;98714.59;104893;1274;61300;-74
2022/01/08 10:00:35;;;;;;;40.40;25.70;;;;;;;0.16;81.14;98708.06;105103;1271;62134;-73
2022/01/08 10:03:24;;;;;;;46.70;28.30;;;;;;;0.23;80.71;98701.91;105120;1271;75261;-73
2022/01/08 10:05:55;;;;;;;45.30;27.10;;;;;;;0.35;80.93;98697.88;105135;1271;69249;-72
2022/01/08 10:08:25;;;;;;;49.20;28.80;;;;;;;0.44;80.94;98702.33;105182;1271;73603;-75
2022/01/08 10:11:04;;;;;;;53.70;32.10;;;;;;;0.48;80.79;98700.48;104949;1274;61268;-72
2022/01/08 10:13:35;;;;;;;53.00;31.40;;;;;;;0.50;80.59;98699.35;105176;1272;61255;-72
2022/01/08 10:18:49;;;;;;;55.20;35.20;;;;;;;0.56;80.34;98697.95;105114;1271;70397;-75
2022/01/08 10:21:17;;;;;;;54.10;33.70;;;;;;;0.56;80.31;98699.34;104976;1274;73607;-74
2022/01/08 10:23:50;;;;;;;50.60;30.00;;;;;;;0.59;80.54;98700.66;104726;1272;61276;-73
2022/01/08 10:26:19;;;;;;;47.60;30.40;;;;;;;0.65;80.58;98698.52;105181;1271;61891;-74
2022/01/08 10:28:46;;;;;;;51.10;28.80;;;;;;;0.71;80.52;98698.19;105199;1271;74975;-75
2022/01/08 10:31:14;;;;;;;47.30;28.30;;;;;;;0.71;80.21;98697.29;105131;1272;61259;-74
2022/01/08 10:33:44;;;;;;;47.90;29.80;;;;;;;0.70;79.94;98693.48;105109;1271;74521;-73
2022/01/08 10:36:11;;;;;;;;;;;;;;;0.69;79.74;98688.48;105271;1271;61371;-72
2022/01/08 10:38:39;;;;;;;47.80;28.60;;;;;;;0.68;79.75;98687.77;105139;1271;61307;-73
2022/01/08 10:41:15;;;;;;;50.50;30.00;;;;;;;0.67;79.53;98697.25;105122;1271;75218;-74
2022/01/08 10:43:41;;;;;;;55.10;30.10;;;;;;;0.62;79.62;98695.65;105101;1271;70261;-74
2022/01/08 10:46:12;;;;;;;45.90;28.60;;;;;;;0.59;79.89;98694.02;104764;1274;71660;-72
2022/01/08 10:48:47;;;;;;;63.90;38.70;;;;;;;0.57;79.71;98692.33;104879;1271;61304;-70
2022/01/08 10:51:17;;;;;;;76.30;43.10;;;;;;;0.55;79.94;98694.83;104858;1272;61283;-74
2022/01/08 10:53:50;;;;;;;74.10;44.90;;;;;;;0.50;79.98;98694.63;105117;1271;75369;-74
2022/01/08 10:56:30;;;;;;;74.10;47.50;;;;;;;0.46;80.11;98693.71;105139;1272;69832;-74
2022/01/08 10:59:06;;;;;;;74.60;45.40;;;;;;;0.45;80.31;98694.61;104887;1271;74216;-74
2022/01/08 11:01:35;;;;;;;70.20;40.30;;;;;;;0.46;80.50;98685.52;105153;1271;61272;-73
2022/01/08 11:04:03;;;;;;;59.00;35.90;;;;;;;0.48;80.26;98680.02;105130;1271;61941;-73
2022/01/08 11:06:30;;;;;;;54.60;35.90;;;;;;;0.48;79.92;98679.85;104976;1271;75332;-72
2022/01/08 11:09:01;;;;;;;53.10;32.70;;;;;;;0.49;79.85;98676.33;105127;1271;69722;-73
2022/01/08 11:11:30;;;;;;;46.10;29.40;;;;;;;0.51;79.38;98672.23;104775;1274;74782;-73
2022/01/08 11:14:07;;;;;;;49.40;29.90;;;;;;;0.54;79.52;98671.10;105145;1271;61269;-73
2022/01/08 11:16:34;;;;;;;47.00;29.20;;;;;;;0.62;79.46;98668.05;105216;1271;61784;-74
2022/01/08 11:19:04;;;;;;;42.20;26.50;;;;;;;0.71;79.66;98658.51;105185;1271;76224;-73
2022/01/08 11:21:32;;;;;;;43.00;26.80;;;;;;;0.84;79.45;98660.52;104729;1271;70410;-74
2022/01/08 11:24:00;;;;;;;48.60;31.00;;;;;;;0.99;79.62;98657.39;104842;1272;73328;-74
2022/01/08 11:26:28;;;;;;;48.70;27.20;;;;;;;1.13;79.70;98651.99;105183;1271;61178;-72
2022/01/08 11:28:59;;;;;;;44.60;26.10;;;;;;;1.24;79.41;98644.45;105152;1272;61246;-74
2022/01/08 11:31:33;;;;;;;59.60;35.10;;;;;;;1.28;79.01;98645.54;105160;1271;73518;-75
2022/01/08 11:34:07;;;;;;;41.80;24.40;;;;;;;1.24;78.93;98640.63;105265;1271;68829;-74
2022/01/08 11:36:34;;;;;;;49.30;27.60;;;;;;;1.23;78.84;98639.59;105098;1271;74205;-72
2022/01/08 11:39:02;;;;;;;51.10;27.70;;;;;;;1.21;78.52;98636.50;105290;1271;61256;-76